sensor_id;sensor_type;location;lat;lon;timestamp;P1;durP1;ratioP1;P2;durP2;ratioP2
59786;SDS011;45672;51.612;5.536;2023-08-20T00:01:57;8.63;;;4.80;;
59786;SDS011;45672;51.612;5.536;2023-08-20T00:04:26;8.27;;;5.10;;
59786;SDS011;45672;51.612;5.536;2023-08-20T00:06:52;9.68;;;5.20;;
59786;SDS011;45672;51.612;5.536;2023-08-20T00:09:18;9.77;;;5.20;;
59786;SDS011;45672;51.612;5.536;2023-08-20T00:11:43;13.40;;;5.35;;
59786;SDS011;45672;51.612;5.536;2023-08-20T00:14:14;7.90;;;5.22;;
59786;SDS011;45672;51.612;5.536;2023-08-20T00:16:41;9.48;;;5.85;;
59786;SDS011;45672;51.612;5.536;2023-08-20T00:19:07;13.23;;;5.53;;
59786;SDS011;45672;51.612;5.536;2023-08-20T00:21:33;11.30;;;5.53;;
59786;SDS011;45672;51.612;5.536;2023-08-20T00:23:59;9.43;;;5.22;;
59786;SDS011;45672;51.612;5.536;2023-08-20T00:26:24;9.77;;;5.40;;
59786;SDS011;45672;51.612;5.536;2023-08-20T00:28:50;10.50;;;5.13;;
59786;SDS011;45672;51.612;5.536;2023-08-20T00:31:15;10.57;;;5.05;;
59786;SDS011;45672;51.612;5.536;2023-08-20T00:33:40;8.95;;;5.47;;
59786;SDS011;45672;51.612;5.536;2023-08-20T00:36:06;10.00;;;5.35;;
59786;SDS011;45672;51.612;5.536;2023-08-20T00:38:31;9.15;;;5.07;;
59786;SDS011;45672;51.612;5.536;2023-08-20T00:40:56;13.13;;;5.32;;
59786;SDS011;45672;51.612;5.536;2023-08-20T00:43:22;11.88;;;5.55;;
59786;SDS011;45672;51.612;5.536;2023-08-20T00:45:47;13.15;;;5.00;;
59786;SDS011;45672;51.612;5.536;2023-08-20T00:48:13;9.30;;;5.35;;
59786;SDS011;45672;51.612;5.536;2023-08-20T00:50:38;13.40;;;5.65;;
59786;SDS011;45672;51.612;5.536;2023-08-20T00:53:05;12.75;;;5.38;;
59786;SDS011;45672;51.612;5.536;2023-08-20T00:55:31;11.25;;;5.50;;
59786;SDS011;45672;51.612;5.536;2023-08-20T00:57:57;9.52;;;5.70;;
59786;SDS011;45672;51.612;5.536;2023-08-20T01:00:23;9.30;;;5.18;;
59786;SDS011;45672;51.612;5.536;2023-08-20T01:02:49;10.30;;;5.30;;
59786;SDS011;45672;51.612;5.536;2023-08-20T01:05:14;7.60;;;5.10;;
59786;SDS011;45672;51.612;5.536;2023-08-20T01:08:04;10.15;;;4.97;;
59786;SDS011;45672;51.612;5.536;2023-08-20T01:10:57;9.80;;;5.28;;
59786;SDS011;45672;51.612;5.536;2023-08-20T01:13:28;9.20;;;5.25;;
59786;SDS011;45672;51.612;5.536;2023-08-20T01:15:54;13.80;;;5.05;;
59786;SDS011;45672;51.612;5.536;2023-08-20T01:18:19;8.48;;;5.28;;
59786;SDS011;45672;51.612;5.536;2023-08-20T01:20:45;8.68;;;4.88;;
59786;SDS011;45672;51.612;5.536;2023-08-20T01:23:34;7.80;;;5.18;;
59786;SDS011;45672;51.612;5.536;2023-08-20T01:26:17;9.43;;;5.15;;
59786;SDS011;45672;51.612;5.536;2023-08-20T01:28:54;7.95;;;5.07;;
59786;SDS011;45672;51.612;5.536;2023-08-20T01:31:20;10.55;;;5.75;;
59786;SDS011;45672;51.612;5.536;2023-08-20T01:33:46;12.70;;;5.43;;
59786;SDS011;45672;51.612;5.536;2023-08-20T01:36:11;10.98;;;5.20;;
59786;SDS011;45672;51.612;5.536;2023-08-20T01:38:37;8.23;;;5.50;;
59786;SDS011;45672;51.612;5.536;2023-08-20T01:41:03;9.90;;;5.70;;
59786;SDS011;45672;51.612;5.536;2023-08-20T01:43:29;13.65;;;5.93;;
59786;SDS011;45672;51.612;5.536;2023-08-20T01:45:54;8.50;;;5.90;;
59786;SDS011;45672;51.612;5.536;2023-08-20T01:48:19;14.25;;;6.18;;
59786;SDS011;45672;51.612;5.536;2023-08-20T01:50:45;7.15;;;5.80;;
59786;SDS011;45672;51.612;5.536;2023-08-20T01:53:11;12.32;;;6.38;;
59786;SDS011;45672;51.612;5.536;2023-08-20T01:55:36;15.52;;;6.55;;
59786;SDS011;45672;51.612;5.536;2023-08-20T01:58:01;11.57;;;7.03;;
59786;SDS011;45672;51.612;5.536;2023-08-20T02:00:27;11.02;;;6.50;;
59786;SDS011;45672;51.612;5.536;2023-08-20T02:02:53;11.98;;;7.07;;
59786;SDS011;45672;51.612;5.536;2023-08-20T02:05:19;10.25;;;6.15;;
59786;SDS011;45672;51.612;5.536;2023-08-20T02:07:44;11.82;;;6.97;;
59786;SDS011;45672;51.612;5.536;2023-08-20T02:10:09;11.23;;;6.35;;
59786;SDS011;45672;51.612;5.536;2023-08-20T02:12:35;13.05;;;6.90;;
59786;SDS011;45672;51.612;5.536;2023-08-20T02:15:01;12.60;;;6.55;;
59786;SDS011;45672;51.612;5.536;2023-08-20T02:17:27;15.65;;;6.65;;
59786;SDS011;45672;51.612;5.536;2023-08-20T02:19:52;10.13;;;5.93;;
59786;SDS011;45672;51.612;5.536;2023-08-20T02:22:18;13.32;;;6.40;;
59786;SDS011;45672;51.612;5.536;2023-08-20T02:24:45;11.27;;;6.20;;
59786;SDS011;45672;51.612;5.536;2023-08-20T02:27:11;10.68;;;6.40;;
59786;SDS011;45672;51.612;5.536;2023-08-20T02:29:36;9.13;;;6.70;;
59786;SDS011;45672;51.612;5.536;2023-08-20T02:32:01;12.80;;;6.65;;
59786;SDS011;45672;51.612;5.536;2023-08-20T02:34:27;13.38;;;6.70;;
59786;SDS011;45672;51.612;5.536;2023-08-20T02:36:52;11.07;;;6.38;;
59786;SDS011;45672;51.612;5.536;2023-08-20T02:39:18;12.73;;;6.55;;
59786;SDS011;45672;51.612;5.536;2023-08-20T02:41:43;10.95;;;6.55;;
59786;SDS011;45672;51.612;5.536;2023-08-20T02:44:08;9.93;;;6.45;;
59786;SDS011;45672;51.612;5.536;2023-08-20T02:46:34;10.00;;;7.20;;
59786;SDS011;45672;51.612;5.536;2023-08-20T02:48:59;14.60;;;6.80;;
59786;SDS011;45672;51.612;5.536;2023-08-20T02:51:25;13.77;;;6.72;;
59786;SDS011;45672;51.612;5.536;2023-08-20T02:53:50;13.05;;;6.95;;
59786;SDS011;45672;51.612;5.536;2023-08-20T02:56:15;12.93;;;6.78;;
59786;SDS011;45672;51.612;5.536;2023-08-20T02:58:41;13.30;;;6.95;;
59786;SDS011;45672;51.612;5.536;2023-08-20T03:01:06;12.02;;;6.97;;
59786;SDS011;45672;51.612;5.536;2023-08-20T03:03:32;11.18;;;6.35;;
59786;SDS011;45672;51.612;5.536;2023-08-20T03:05:57;9.32;;;6.75;;
59786;SDS011;45672;51.612;5.536;2023-08-20T03:08:23;12.52;;;6.80;;
59786;SDS011;45672;51.612;5.536;2023-08-20T03:10:48;7.88;;;6.57;;
59786;SDS011;45672;51.612;5.536;2023-08-20T03:13:13;10.57;;;6.88;;
59786;SDS011;45672;51.612;5.536;2023-08-20T03:15:39;13.43;;;6.68;;
59786;SDS011;45672;51.612;5.536;2023-08-20T03:18:04;10.73;;;6.90;;
59786;SDS011;45672;51.612;5.536;2023-08-20T03:20:30;10.80;;;6.90;;
59786;SDS011;45672;51.612;5.536;2023-08-20T03:22:56;12.43;;;7.20;;
59786;SDS011;45672;51.612;5.536;2023-08-20T03:25:22;11.82;;;7.30;;
59786;SDS011;45672;51.612;5.536;2023-08-20T03:27:47;9.43;;;7.05;;
59786;SDS011;45672;51.612;5.536;2023-08-20T03:30:13;11.60;;;7.20;;
59786;SDS011;45672;51.612;5.536;2023-08-20T03:32:38;13.23;;;7.20;;
59786;SDS011;45672;51.612;5.536;2023-08-20T03:35:03;9.15;;;6.63;;
59786;SDS011;45672;51.612;5.536;2023-08-20T03:37:29;11.02;;;7.10;;
59786;SDS011;45672;51.612;5.536;2023-08-20T03:39:55;13.43;;;7.55;;
59786;SDS011;45672;51.612;5.536;2023-08-20T03:42:20;13.52;;;6.80;;
59786;SDS011;45672;51.612;5.536;2023-08-20T03:44:45;14.27;;;6.80;;
59786;SDS011;45672;51.612;5.536;2023-08-20T03:47:11;11.13;;;6.78;;
59786;SDS011;45672;51.612;5.536;2023-08-20T03:49:37;12.65;;;7.20;;
59786;SDS011;45672;51.612;5.536;2023-08-20T03:52:02;12.48;;;7.13;;
59786;SDS011;45672;51.612;5.536;2023-08-20T03:54:28;13.27;;;7.13;;
59786;SDS011;45672;51.612;5.536;2023-08-20T03:56:54;13.50;;;6.97;;
59786;SDS011;45672;51.612;5.536;2023-08-20T03:59:20;14.35;;;7.60;;
59786;SDS011;45672;51.612;5.536;2023-08-20T04:01:45;13.27;;;6.85;;
59786;SDS011;45672;51.612;5.536;2023-08-20T04:04:10;15.32;;;7.25;;
59786;SDS011;45672;51.612;5.536;2023-08-20T04:06:36;9.75;;;6.82;;
59786;SDS011;45672;51.612;5.536;2023-08-20T04:09:01;12.95;;;7.15;;
59786;SDS011;45672;51.612;5.536;2023-08-20T04:11:26;11.73;;;7.15;;
59786;SDS011;45672;51.612;5.536;2023-08-20T04:13:52;13.02;;;7.45;;
59786;SDS011;45672;51.612;5.536;2023-08-20T04:16:17;11.73;;;7.38;;
59786;SDS011;45672;51.612;5.536;2023-08-20T04:18:42;14.90;;;7.40;;
59786;SDS011;45672;51.612;5.536;2023-08-20T04:21:08;9.45;;;6.80;;
59786;SDS011;45672;51.612;5.536;2023-08-20T04:23:33;9.27;;;6.88;;
59786;SDS011;45672;51.612;5.536;2023-08-20T04:25:58;12.25;;;6.78;;
59786;SDS011;45672;51.612;5.536;2023-08-20T04:28:24;14.60;;;7.10;;
59786;SDS011;45672;51.612;5.536;2023-08-20T04:30:51;13.60;;;7.22;;
59786;SDS011;45672;51.612;5.536;2023-08-20T04:33:19;12.45;;;6.20;;
59786;SDS011;45672;51.612;5.536;2023-08-20T04:35:44;12.50;;;6.50;;
59786;SDS011;45672;51.612;5.536;2023-08-20T04:38:10;11.02;;;6.90;;
59786;SDS011;45672;51.612;5.536;2023-08-20T04:40:35;11.02;;;6.93;;
59786;SDS011;45672;51.612;5.536;2023-08-20T04:43:00;9.07;;;6.72;;
59786;SDS011;45672;51.612;5.536;2023-08-20T04:45:26;11.48;;;7.18;;
59786;SDS011;45672;51.612;5.536;2023-08-20T04:47:51;11.05;;;6.78;;
59786;SDS011;45672;51.612;5.536;2023-08-20T04:50:16;13.48;;;7.15;;
59786;SDS011;45672;51.612;5.536;2023-08-20T04:52:42;11.48;;;6.65;;
59786;SDS011;45672;51.612;5.536;2023-08-20T04:55:07;12.40;;;7.03;;
59786;SDS011;45672;51.612;5.536;2023-08-20T04:57:33;7.72;;;6.90;;
59786;SDS011;45672;51.612;5.536;2023-08-20T04:59:59;12.30;;;7.20;;
59786;SDS011;45672;51.612;5.536;2023-08-20T05:02:24;10.10;;;6.95;;
59786;SDS011;45672;51.612;5.536;2023-08-20T05:04:50;14.25;;;7.30;;
59786;SDS011;45672;51.612;5.536;2023-08-20T05:07:15;12.98;;;7.50;;
59786;SDS011;45672;51.612;5.536;2023-08-20T05:09:40;16.88;;;7.85;;
59786;SDS011;45672;51.612;5.536;2023-08-20T05:12:06;9.68;;;7.22;;
59786;SDS011;45672;51.612;5.536;2023-08-20T05:14:32;7.95;;;6.82;;
59786;SDS011;45672;51.612;5.536;2023-08-20T05:17:00;11.10;;;7.10;;
59786;SDS011;45672;51.612;5.536;2023-08-20T05:19:25;12.85;;;7.75;;
59786;SDS011;45672;51.612;5.536;2023-08-20T05:21:51;10.75;;;7.85;;
59786;SDS011;45672;51.612;5.536;2023-08-20T05:24:20;17.27;;;7.82;;
59786;SDS011;45672;51.612;5.536;2023-08-20T05:26:46;13.35;;;7.18;;
59786;SDS011;45672;51.612;5.536;2023-08-20T05:29:11;15.32;;;7.80;;
59786;SDS011;45672;51.612;5.536;2023-08-20T05:31:37;17.60;;;8.85;;
59786;SDS011;45672;51.612;5.536;2023-08-20T05:34:02;18.98;;;8.40;;
59786;SDS011;45672;51.612;5.536;2023-08-20T05:36:28;13.98;;;8.00;;
59786;SDS011;45672;51.612;5.536;2023-08-20T05:38:53;10.38;;;8.02;;
59786;SDS011;45672;51.612;5.536;2023-08-20T05:41:18;15.57;;;8.18;;
59786;SDS011;45672;51.612;5.536;2023-08-20T05:43:44;14.93;;;7.88;;
59786;SDS011;45672;51.612;5.536;2023-08-20T05:46:09;10.07;;;7.90;;
59786;SDS011;45672;51.612;5.536;2023-08-20T05:48:34;14.85;;;8.07;;
59786;SDS011;45672;51.612;5.536;2023-08-20T05:51:00;11.27;;;8.10;;
59786;SDS011;45672;51.612;5.536;2023-08-20T05:53:25;13.25;;;7.63;;
59786;SDS011;45672;51.612;5.536;2023-08-20T05:55:50;14.88;;;8.27;;
59786;SDS011;45672;51.612;5.536;2023-08-20T05:58:16;12.20;;;7.70;;
59786;SDS011;45672;51.612;5.536;2023-08-20T06:00:41;16.48;;;8.10;;
59786;SDS011;45672;51.612;5.536;2023-08-20T06:03:07;12.52;;;7.35;;
59786;SDS011;45672;51.612;5.536;2023-08-20T06:05:33;12.35;;;8.00;;
59786;SDS011;45672;51.612;5.536;2023-08-20T06:07:59;11.68;;;7.20;;
59786;SDS011;45672;51.612;5.536;2023-08-20T06:10:25;15.68;;;8.20;;
59786;SDS011;45672;51.612;5.536;2023-08-20T06:12:50;12.55;;;6.88;;
59786;SDS011;45672;51.612;5.536;2023-08-20T06:15:15;8.95;;;5.90;;
59786;SDS011;45672;51.612;5.536;2023-08-20T06:17:41;14.75;;;5.72;;
59786;SDS011;45672;51.612;5.536;2023-08-20T06:20:06;13.60;;;5.50;;
59786;SDS011;45672;51.612;5.536;2023-08-20T06:22:33;8.35;;;4.80;;
59786;SDS011;45672;51.612;5.536;2023-08-20T06:24:58;9.63;;;4.65;;
59786;SDS011;45672;51.612;5.536;2023-08-20T06:27:24;10.63;;;4.45;;
59786;SDS011;45672;51.612;5.536;2023-08-20T06:29:49;12.85;;;4.28;;
59786;SDS011;45672;51.612;5.536;2023-08-20T06:32:14;8.90;;;4.30;;
59786;SDS011;45672;51.612;5.536;2023-08-20T06:34:40;14.43;;;3.85;;
59786;SDS011;45672;51.612;5.536;2023-08-20T06:37:05;8.70;;;3.50;;
59786;SDS011;45672;51.612;5.536;2023-08-20T06:39:30;12.02;;;4.03;;
59786;SDS011;45672;51.612;5.536;2023-08-20T06:41:56;13.68;;;4.00;;
59786;SDS011;45672;51.612;5.536;2023-08-20T06:44:21;13.10;;;4.38;;
59786;SDS011;45672;51.612;5.536;2023-08-20T06:46:46;12.98;;;3.97;;
59786;SDS011;45672;51.612;5.536;2023-08-20T06:49:12;9.65;;;3.50;;
59786;SDS011;45672;51.612;5.536;2023-08-20T06:51:37;13.57;;;3.75;;
59786;SDS011;45672;51.612;5.536;2023-08-20T06:54:03;9.07;;;3.38;;
59786;SDS011;45672;51.612;5.536;2023-08-20T06:56:31;10.55;;;3.50;;
59786;SDS011;45672;51.612;5.536;2023-08-20T06:58:56;7.72;;;3.40;;
59786;SDS011;45672;51.612;5.536;2023-08-20T07:01:21;8.98;;;3.72;;
59786;SDS011;45672;51.612;5.536;2023-08-20T07:03:46;10.32;;;3.45;;
59786;SDS011;45672;51.612;5.536;2023-08-20T07:06:13;8.05;;;3.20;;
59786;SDS011;45672;51.612;5.536;2023-08-20T07:08:41;8.45;;;2.85;;
59786;SDS011;45672;51.612;5.536;2023-08-20T07:11:06;4.53;;;2.20;;
59786;SDS011;45672;51.612;5.536;2023-08-20T07:13:32;8.95;;;2.75;;
59786;SDS011;45672;51.612;5.536;2023-08-20T07:15:57;7.20;;;2.40;;
59786;SDS011;45672;51.612;5.536;2023-08-20T07:18:23;7.47;;;2.90;;
59786;SDS011;45672;51.612;5.536;2023-08-20T07:20:49;6.03;;;2.38;;
59786;SDS011;45672;51.612;5.536;2023-08-20T07:23:16;6.38;;;2.30;;
59786;SDS011;45672;51.612;5.536;2023-08-20T07:25:41;5.22;;;1.92;;
59786;SDS011;45672;51.612;5.536;2023-08-20T07:28:07;6.47;;;2.47;;
59786;SDS011;45672;51.612;5.536;2023-08-20T07:30:33;4.68;;;1.65;;
59786;SDS011;45672;51.612;5.536;2023-08-20T07:32:59;5.13;;;1.65;;
59786;SDS011;45672;51.612;5.536;2023-08-20T07:35:25;5.38;;;1.77;;
59786;SDS011;45672;51.612;5.536;2023-08-20T07:37:50;5.80;;;1.85;;
59786;SDS011;45672;51.612;5.536;2023-08-20T07:40:16;6.25;;;2.03;;
59786;SDS011;45672;51.612;5.536;2023-08-20T07:42:41;6.63;;;1.88;;
59786;SDS011;45672;51.612;5.536;2023-08-20T07:45:07;8.05;;;2.80;;
59786;SDS011;45672;51.612;5.536;2023-08-20T07:47:33;6.97;;;2.55;;
59786;SDS011;45672;51.612;5.536;2023-08-20T07:50:00;6.05;;;2.25;;
59786;SDS011;45672;51.612;5.536;2023-08-20T07:52:25;4.28;;;1.80;;
59786;SDS011;45672;51.612;5.536;2023-08-20T07:54:51;6.93;;;2.33;;
59786;SDS011;45672;51.612;5.536;2023-08-20T07:57:16;5.38;;;1.75;;
59786;SDS011;45672;51.612;5.536;2023-08-20T07:59:41;4.80;;;1.80;;
59786;SDS011;45672;51.612;5.536;2023-08-20T08:02:07;6.97;;;2.60;;
59786;SDS011;45672;51.612;5.536;2023-08-20T08:04:33;7.30;;;2.28;;
59786;SDS011;45672;51.612;5.536;2023-08-20T08:06:59;7.03;;;1.88;;
59786;SDS011;45672;51.612;5.536;2023-08-20T08:09:27;4.65;;;1.63;;
59786;SDS011;45672;51.612;5.536;2023-08-20T08:11:54;4.78;;;1.60;;
59786;SDS011;45672;51.612;5.536;2023-08-20T08:14:20;4.30;;;1.40;;
59786;SDS011;45672;51.612;5.536;2023-08-20T08:16:46;3.35;;;1.50;;
59786;SDS011;45672;51.612;5.536;2023-08-20T08:19:11;4.72;;;1.60;;
59786;SDS011;45672;51.612;5.536;2023-08-20T08:21:37;2.92;;;1.10;;
59786;SDS011;45672;51.612;5.536;2023-08-20T08:24:03;4.68;;;1.52;;
59786;SDS011;45672;51.612;5.536;2023-08-20T08:26:29;5.65;;;1.40;;
59786;SDS011;45672;51.612;5.536;2023-08-20T08:28:55;5.20;;;1.70;;
59786;SDS011;45672;51.612;5.536;2023-08-20T08:31:20;3.85;;;1.58;;
59786;SDS011;45672;51.612;5.536;2023-08-20T08:33:45;3.88;;;1.52;;
59786;SDS011;45672;51.612;5.536;2023-08-20T08:36:11;5.60;;;1.60;;
59786;SDS011;45672;51.612;5.536;2023-08-20T08:38:36;5.22;;;1.60;;
59786;SDS011;45672;51.612;5.536;2023-08-20T08:41:03;5.57;;;1.30;;
59786;SDS011;45672;51.612;5.536;2023-08-20T08:43:33;2.17;;;1.00;;
59786;SDS011;45672;51.612;5.536;2023-08-20T08:45:59;4.43;;;1.27;;
59786;SDS011;45672;51.612;5.536;2023-08-20T08:48:28;3.05;;;1.25;;
59786;SDS011;45672;51.612;5.536;2023-08-20T08:50:53;4.00;;;1.10;;
59786;SDS011;45672;51.612;5.536;2023-08-20T08:53:19;2.33;;;0.93;;
59786;SDS011;45672;51.612;5.536;2023-08-20T08:55:46;3.00;;;1.30;;
59786;SDS011;45672;51.612;5.536;2023-08-20T08:58:12;2.83;;;1.30;;
59786;SDS011;45672;51.612;5.536;2023-08-20T09:00:37;2.53;;;0.90;;
59786;SDS011;45672;51.612;5.536;2023-08-20T09:03:02;3.75;;;1.30;;
59786;SDS011;45672;51.612;5.536;2023-08-20T09:05:28;2.85;;;1.30;;
59786;SDS011;45672;51.612;5.536;2023-08-20T09:07:56;3.60;;;1.40;;
59786;SDS011;45672;51.612;5.536;2023-08-20T09:10:24;2.13;;;1.02;;
59786;SDS011;45672;51.612;5.536;2023-08-20T09:12:50;1.95;;;0.82;;
59786;SDS011;45672;51.612;5.536;2023-08-20T09:15:19;3.17;;;1.08;;
59786;SDS011;45672;51.612;5.536;2023-08-20T09:17:44;2.47;;;0.80;;
59786;SDS011;45672;51.612;5.536;2023-08-20T09:20:09;2.58;;;0.80;;
59786;SDS011;45672;51.612;5.536;2023-08-20T09:22:35;2.45;;;0.80;;
59786;SDS011;45672;51.612;5.536;2023-08-20T09:25:02;2.17;;;1.10;;
59786;SDS011;45672;51.612;5.536;2023-08-20T09:27:27;1.67;;;0.90;;
59786;SDS011;45672;51.612;5.536;2023-08-20T09:29:54;1.90;;;0.90;;
59786;SDS011;45672;51.612;5.536;2023-08-20T09:32:21;2.17;;;0.93;;
59786;SDS011;45672;51.612;5.536;2023-08-20T09:34:52;2.63;;;1.08;;
59786;SDS011;45672;51.612;5.536;2023-08-20T09:37:19;1.92;;;0.82;;
59786;SDS011;45672;51.612;5.536;2023-08-20T09:39:46;1.67;;;0.68;;
59786;SDS011;45672;51.612;5.536;2023-08-20T09:42:11;1.80;;;0.75;;
59786;SDS011;45672;51.612;5.536;2023-08-20T09:44:38;1.45;;;0.80;;
59786;SDS011;45672;51.612;5.536;2023-08-20T09:47:14;4.57;;;0.70;;
59786;SDS011;45672;51.612;5.536;2023-08-20T09:49:44;2.00;;;0.80;;
59786;SDS011;45672;51.612;5.536;2023-08-20T09:52:11;1.67;;;0.75;;
59786;SDS011;45672;51.612;5.536;2023-08-20T09:57:11;1.73;;;0.50;;
59786;SDS011;45672;51.612;5.536;2023-08-20T09:59:39;1.52;;;0.50;;
59786;SDS011;45672;51.612;5.536;2023-08-20T10:02:06;1.98;;;0.60;;
59786;SDS011;45672;51.612;5.536;2023-08-20T10:04:35;1.13;;;0.50;;
59786;SDS011;45672;51.612;5.536;2023-08-20T10:07:01;2.50;;;0.50;;
59786;SDS011;45672;51.612;5.536;2023-08-20T10:09:28;2.05;;;0.45;;
59786;SDS011;45672;51.612;5.536;2023-08-20T10:11:53;0.60;;;0.40;;
59786;SDS011;45672;51.612;5.536;2023-08-20T10:14:19;1.40;;;0.55;;
59786;SDS011;45672;51.612;5.536;2023-08-20T10:16:44;1.05;;;0.30;;
59786;SDS011;45672;51.612;5.536;2023-08-20T10:19:10;1.02;;;0.47;;
59786;SDS011;45672;51.612;5.536;2023-08-20T10:21:35;0.98;;;0.40;;
59786;SDS011;45672;51.612;5.536;2023-08-20T10:24:05;1.38;;;0.22;;
59786;SDS011;45672;51.612;5.536;2023-08-20T10:26:32;0.50;;;0.20;;
59786;SDS011;45672;51.612;5.536;2023-08-20T10:32:06;0.75;;;0.35;;
59786;SDS011;45672;51.612;5.536;2023-08-20T10:34:35;1.95;;;0.45;;
59786;SDS011;45672;51.612;5.536;2023-08-20T10:37:02;2.05;;;0.30;;
59786;SDS011;45672;51.612;5.536;2023-08-20T10:39:33;3.95;;;0.50;;
59786;SDS011;45672;51.612;5.536;2023-08-20T10:45:01;1.00;;;0.40;;
59786;SDS011;45672;51.612;5.536;2023-08-20T10:47:45;1.48;;;0.50;;
59786;SDS011;45672;51.612;5.536;2023-08-20T10:50:16;1.42;;;0.50;;
59786;SDS011;45672;51.612;5.536;2023-08-20T10:52:49;1.25;;;0.50;;
59786;SDS011;45672;51.612;5.536;2023-08-20T10:55:16;0.90;;;0.40;;
59786;SDS011;45672;51.612;5.536;2023-08-20T10:57:54;1.13;;;0.50;;
59786;SDS011;45672;51.612;5.536;2023-08-20T11:00:20;1.83;;;0.40;;
59786;SDS011;45672;51.612;5.536;2023-08-20T11:02:45;1.63;;;0.50;;
59786;SDS011;45672;51.612;5.536;2023-08-20T11:05:18;2.33;;;0.70;;
59786;SDS011;45672;51.612;5.536;2023-08-20T11:07:46;0.55;;;0.40;;
59786;SDS011;45672;51.612;5.536;2023-08-20T11:10:16;2.72;;;0.60;;
59786;SDS011;45672;51.612;5.536;2023-08-20T11:12:42;1.52;;;0.80;;
59786;SDS011;45672;51.612;5.536;2023-08-20T11:15:11;1.45;;;0.80;;
59786;SDS011;45672;51.612;5.536;2023-08-20T11:17:40;1.85;;;0.90;;
59786;SDS011;45672;51.612;5.536;2023-08-20T11:20:07;2.40;;;0.80;;
59786;SDS011;45672;51.612;5.536;2023-08-20T11:22:32;2.63;;;0.85;;
59786;SDS011;45672;51.612;5.536;2023-08-20T11:24:58;3.67;;;0.60;;
59786;SDS011;45672;51.612;5.536;2023-08-20T11:27:28;3.88;;;0.77;;
59786;SDS011;45672;51.612;5.536;2023-08-20T11:29:53;1.83;;;0.60;;
59786;SDS011;45672;51.612;5.536;2023-08-20T11:32:21;4.10;;;0.80;;
59786;SDS011;45672;51.612;5.536;2023-08-20T11:34:48;2.85;;;0.65;;
59786;SDS011;45672;51.612;5.536;2023-08-20T11:37:16;2.42;;;0.90;;
59786;SDS011;45672;51.612;5.536;2023-08-20T11:39:43;1.45;;;0.80;;
59786;SDS011;45672;51.612;5.536;2023-08-20T11:42:09;1.63;;;0.60;;
59786;SDS011;45672;51.612;5.536;2023-08-20T11:44:45;2.55;;;0.80;;
59786;SDS011;45672;51.612;5.536;2023-08-20T11:47:15;4.05;;;1.00;;
59786;SDS011;45672;51.612;5.536;2023-08-20T11:49:42;1.52;;;0.80;;
59786;SDS011;45672;51.612;5.536;2023-08-20T11:52:07;2.85;;;1.10;;
59786;SDS011;45672;51.612;5.536;2023-08-20T11:54:34;1.88;;;0.68;;
59786;SDS011;45672;51.612;5.536;2023-08-20T11:57:03;3.10;;;0.80;;
59786;SDS011;45672;51.612;5.536;2023-08-20T11:59:29;2.75;;;0.77;;
59786;SDS011;45672;51.612;5.536;2023-08-20T12:01:56;1.88;;;0.80;;
59786;SDS011;45672;51.612;5.536;2023-08-20T12:04:26;2.60;;;0.60;;
59786;SDS011;45672;51.612;5.536;2023-08-20T12:07:05;5.13;;;0.90;;
59786;SDS011;45672;51.612;5.536;2023-08-20T12:09:31;2.35;;;0.75;;
59786;SDS011;45672;51.612;5.536;2023-08-20T12:11:56;2.65;;;0.88;;
59786;SDS011;45672;51.612;5.536;2023-08-20T12:14:23;3.65;;;1.10;;
59786;SDS011;45672;51.612;5.536;2023-08-20T12:16:49;2.72;;;1.00;;
59786;SDS011;45672;51.612;5.536;2023-08-20T12:19:17;1.95;;;0.90;;
59786;SDS011;45672;51.612;5.536;2023-08-20T12:21:43;2.28;;;0.77;;
59786;SDS011;45672;51.612;5.536;2023-08-20T12:24:09;2.63;;;0.90;;
59786;SDS011;45672;51.612;5.536;2023-08-20T12:26:35;1.65;;;0.80;;
59786;SDS011;45672;51.612;5.536;2023-08-20T12:29:04;1.17;;;0.68;;
59786;SDS011;45672;51.612;5.536;2023-08-20T12:31:29;3.38;;;0.88;;
59786;SDS011;45672;51.612;5.536;2023-08-20T12:33:55;3.28;;;0.88;;
59786;SDS011;45672;51.612;5.536;2023-08-20T12:36:21;1.92;;;0.70;;
59786;SDS011;45672;51.612;5.536;2023-08-20T12:38:46;3.45;;;1.02;;
59786;SDS011;45672;51.612;5.536;2023-08-20T12:41:11;4.72;;;0.88;;
59786;SDS011;45672;51.612;5.536;2023-08-20T12:43:37;2.83;;;0.80;;
59786;SDS011;45672;51.612;5.536;2023-08-20T12:46:03;2.10;;;0.82;;
59786;SDS011;45672;51.612;5.536;2023-08-20T12:48:28;4.45;;;0.80;;
59786;SDS011;45672;51.612;5.536;2023-08-20T12:50:54;5.13;;;1.20;;
59786;SDS011;45672;51.612;5.536;2023-08-20T12:53:20;5.53;;;0.90;;
59786;SDS011;45672;51.612;5.536;2023-08-20T12:55:46;2.53;;;0.70;;
59786;SDS011;45672;51.612;5.536;2023-08-20T12:58:11;2.47;;;0.80;;
59786;SDS011;45672;51.612;5.536;2023-08-20T13:00:37;1.80;;;0.80;;
59786;SDS011;45672;51.612;5.536;2023-08-20T13:03:02;3.60;;;0.93;;
59786;SDS011;45672;51.612;5.536;2023-08-20T13:05:28;1.95;;;0.80;;
59786;SDS011;45672;51.612;5.536;2023-08-20T13:07:54;2.67;;;0.90;;
59786;SDS011;45672;51.612;5.536;2023-08-20T13:10:19;3.60;;;0.90;;
59786;SDS011;45672;51.612;5.536;2023-08-20T13:12:49;3.28;;;0.50;;
59786;SDS011;45672;51.612;5.536;2023-08-20T13:15:17;2.65;;;0.90;;
59786;SDS011;45672;51.612;5.536;2023-08-20T13:17:44;3.67;;;1.00;;
59786;SDS011;45672;51.612;5.536;2023-08-20T13:20:11;2.17;;;0.82;;
59786;SDS011;45672;51.612;5.536;2023-08-20T13:22:36;2.08;;;0.80;;
59786;SDS011;45672;51.612;5.536;2023-08-20T13:25:02;4.95;;;0.98;;
59786;SDS011;45672;51.612;5.536;2023-08-20T13:27:27;1.67;;;0.90;;
59786;SDS011;45672;51.612;5.536;2023-08-20T13:29:52;2.92;;;0.70;;
59786;SDS011;45672;51.612;5.536;2023-08-20T13:32:18;2.00;;;1.00;;
59786;SDS011;45672;51.612;5.536;2023-08-20T13:34:43;3.30;;;1.20;;
59786;SDS011;45672;51.612;5.536;2023-08-20T13:37:09;2.38;;;0.68;;
59786;SDS011;45672;51.612;5.536;2023-08-20T13:39:34;3.13;;;0.82;;
59786;SDS011;45672;51.612;5.536;2023-08-20T13:41:59;2.30;;;1.00;;
59786;SDS011;45672;51.612;5.536;2023-08-20T13:44:25;3.50;;;1.00;;
59786;SDS011;45672;51.612;5.536;2023-08-20T13:46:50;4.80;;;1.15;;
59786;SDS011;45672;51.612;5.536;2023-08-20T13:49:15;2.08;;;0.80;;
59786;SDS011;45672;51.612;5.536;2023-08-20T13:51:41;4.93;;;0.80;;
59786;SDS011;45672;51.612;5.536;2023-08-20T13:54:06;4.15;;;0.77;;
59786;SDS011;45672;51.612;5.536;2023-08-20T13:56:31;1.42;;;0.90;;
59786;SDS011;45672;51.612;5.536;2023-08-20T13:58:57;2.63;;;0.90;;
59786;SDS011;45672;51.612;5.536;2023-08-20T14:01:22;6.25;;;0.95;;
59786;SDS011;45672;51.612;5.536;2023-08-20T14:03:47;4.00;;;1.08;;
59786;SDS011;45672;51.612;5.536;2023-08-20T14:06:14;2.47;;;0.90;;
59786;SDS011;45672;51.612;5.536;2023-08-20T14:08:39;6.18;;;1.05;;
59786;SDS011;45672;51.612;5.536;2023-08-20T14:11:05;5.38;;;1.10;;
59786;SDS011;45672;51.612;5.536;2023-08-20T14:13:30;3.58;;;0.98;;
59786;SDS011;45672;51.612;5.536;2023-08-20T14:15:55;1.85;;;0.70;;
59786;SDS011;45672;51.612;5.536;2023-08-20T15:33:36;4.03;;;1.35;;
59786;SDS011;45672;51.612;5.536;2023-08-20T15:36:02;3.08;;;1.10;;
59786;SDS011;45672;51.612;5.536;2023-08-20T15:38:27;4.25;;;1.40;;
59786;SDS011;45672;51.612;5.536;2023-08-20T15:40:56;5.95;;;1.63;;
59786;SDS011;45672;51.612;5.536;2023-08-20T15:43:23;2.78;;;1.33;;
59786;SDS011;45672;51.612;5.536;2023-08-20T15:45:48;5.20;;;1.00;;
59786;SDS011;45672;51.612;5.536;2023-08-20T15:48:13;4.45;;;1.20;;
59786;SDS011;45672;51.612;5.536;2023-08-20T15:50:39;6.00;;;1.33;;
59786;SDS011;45672;51.612;5.536;2023-08-20T15:53:04;4.65;;;1.10;;
59786;SDS011;45672;51.612;5.536;2023-08-20T15:55:29;6.93;;;1.30;;
59786;SDS011;45672;51.612;5.536;2023-08-20T15:57:55;4.07;;;1.25;;
59786;SDS011;45672;51.612;5.536;2023-08-20T16:00:20;4.95;;;1.20;;
59786;SDS011;45672;51.612;5.536;2023-08-20T16:02:46;3.85;;;1.10;;